Terminal Aerodrome Forecast
Issued by NWS

Home | Current Version | Previous Version | Graphics & Text | Print | Product List | Glossary On
Versions: 1 2 3 4 5 6 7 8 9 10 11 12 13 14 15 16 17 18 19 20
657
FTUS43 KFGF 071418 AAA
TAFBJI
TAF AMD
KBJI 071418Z 0714/0812 27015G22KT P6SM OVC006
      TEMPO 0714/0716 4SM -SN BR
     FM071600 29018G25KT 2SM -SN OVC004
     FM080100 31018G25KT 4SM -SN BKN015=

USA.gov is the U.S. government's official web portal to all federal, state and local government web resources and services.